Johnson County (6A4)
Johnson County, TN
Field Elevation: 2240
Lat: 36°25.07N  Long: 81°49.51W
CTAF/Unicom Freq: 122.7000
   
    
Weather Advisories
2016-05-02   23:11 Z
Altimeter 29.97" Hg
Wind 040° @ 15 KT
Gusts 21 KT
Visibility 10 SM
Ceiling --
Temperature 18° C (64° F)
Dewpoint 14° C (57° F)
Relative Humidity 81%
Density Altitude --
Condensation Altitude 3,900 feet
Wind and Runways
Indicated Runway = 06
Headwind = 14 kt
Crosswind = 5 kt
History
 
 
 
More Info
NOAA Forecast
 
 
About Us
Belfort Instrument
 
 
FAA Disclaimer: The data displayed is for advisory purposes only and is not to be used for flight planning or operations. For official data, please call (not available) to hear the current automated AWOS voice message.
  METAR 6A4 022311Z AUTO 04015G21KT 10 SM 18/14 A2997